Forside
METAR-TAF:

METAR-TAF

Lufthavne :

Madison, Wisconsin, USA

Breddekreds: 43-08-26N, længdekreds: 089-20-43W, højde: 262 m

Aktuelle vejr

Denne rapport blev lavet for 50 minutter siden, kl. 17:53 UTC
Vind 5 kt fra varierende retninger
Temperatur 5°C
Fugtighed 30%
Tryk 1026 hPa
Sigt: 16.1 km
Spredte skyer i en højde af 25000 ft

METAR: KMSN 021753Z VRB05KT 10SM SCT250 05/M11 A3031 RMK AO2 SLP276 T00501111 10050 21083 58003

Tid: 12:43 (18:43 UTC)

Vejrudsigter

Denne rapport blev lavet for 1 time og 19 minutter siden, kl. 17:24 UTC
Foreløbig gælder fra 02 på 18 UTC til 03 på 18 UTC
Vind 6 kt fra vest
Sigt: 10 km
Nogle få skyer i en højde af 25000 ft
Fra 03 på 1000 UTC
Vind 7 kt fra vest
Sigt: 10 km
Spredte skyer i en højde af 3000 ft
Brudte skyer i en højde af 3500 ft

TAF: KMSN 021724Z 0218/0318 27006KT P6SM FEW250 FM031000 28007KT P6SM SCT030 BKN035

Vejrobservationer og prognoser fra mere end 4000 lufthavne (METAR og TAF).

De gule og røde prikker repræsenterer de meteorologiske stationer.

Flyt musen over at se navnet på stationen.

Så klik over at se vejr observationer og prognoser.

At skifte det kort: Klik på de grønne knapper med et sort kors for at zoome ind; på den grønne knap med en bindestreg for at zoome ud; eller på de grønne pile for tilstødende kort.


METAR-TAF: